sensor_id;sensor_type;location;lat;lon;timestamp;P1;durP1;ratioP1;P2;durP2;ratioP2
53269;SDS011;39159;45.634;9.420;2023-11-19T00:01:25;10.52;;;6.90;;
53269;SDS011;39159;45.634;9.420;2023-11-19T00:03:50;10.90;;;6.68;;
53269;SDS011;39159;45.634;9.420;2023-11-19T00:06:16;10.98;;;6.80;;
53269;SDS011;39159;45.634;9.420;2023-11-19T00:08:41;10.05;;;6.60;;
53269;SDS011;39159;45.634;9.420;2023-11-19T00:11:08;11.25;;;6.50;;
53269;SDS011;39159;45.634;9.420;2023-11-19T00:13:34;11.82;;;6.50;;
53269;SDS011;39159;45.634;9.420;2023-11-19T00:15:59;11.07;;;7.07;;
53269;SDS011;39159;45.634;9.420;2023-11-19T00:18:25;11.50;;;7.30;;
53269;SDS011;39159;45.634;9.420;2023-11-19T00:20:50;9.35;;;6.30;;
53269;SDS011;39159;45.634;9.420;2023-11-19T00:23:15;10.30;;;5.70;;
53269;SDS011;39159;45.634;9.420;2023-11-19T00:25:41;9.38;;;6.15;;
53269;SDS011;39159;45.634;9.420;2023-11-19T00:28:06;10.88;;;6.43;;
53269;SDS011;39159;45.634;9.420;2023-11-19T00:30:32;9.52;;;5.85;;
53269;SDS011;39159;45.634;9.420;2023-11-19T00:32:58;9.82;;;6.28;;
53269;SDS011;39159;45.634;9.420;2023-11-19T00:35:23;7.93;;;5.38;;
53269;SDS011;39159;45.634;9.420;2023-11-19T00:37:48;10.18;;;5.85;;
53269;SDS011;39159;45.634;9.420;2023-11-19T00:40:14;8.43;;;5.93;;
53269;SDS011;39159;45.634;9.420;2023-11-19T00:42:42;8.52;;;5.90;;
53269;SDS011;39159;45.634;9.420;2023-11-19T00:45:08;7.90;;;5.25;;
53269;SDS011;39159;45.634;9.420;2023-11-19T00:47:34;9.13;;;5.40;;
53269;SDS011;39159;45.634;9.420;2023-11-19T00:50:00;9.48;;;5.43;;
53269;SDS011;39159;45.634;9.420;2023-11-19T00:52:26;7.72;;;5.25;;
53269;SDS011;39159;45.634;9.420;2023-11-19T00:54:52;9.50;;;5.68;;
53269;SDS011;39159;45.634;9.420;2023-11-19T00:57:17;8.05;;;5.30;;
53269;SDS011;39159;45.634;9.420;2023-11-19T00:59:43;8.23;;;5.88;;
53269;SDS011;39159;45.634;9.420;2023-11-19T01:02:08;8.93;;;5.72;;
53269;SDS011;39159;45.634;9.420;2023-11-19T01:04:34;8.23;;;5.35;;
53269;SDS011;39159;45.634;9.420;2023-11-19T01:07:04;8.38;;;6.03;;
53269;SDS011;39159;45.634;9.420;2023-11-19T01:09:30;10.73;;;5.88;;
53269;SDS011;39159;45.634;9.420;2023-11-19T01:11:59;8.13;;;5.85;;
53269;SDS011;39159;45.634;9.420;2023-11-19T01:14:25;10.55;;;5.75;;
53269;SDS011;39159;45.634;9.420;2023-11-19T01:16:51;9.18;;;6.53;;
53269;SDS011;39159;45.634;9.420;2023-11-19T01:19:18;8.05;;;5.80;;
53269;SDS011;39159;45.634;9.420;2023-11-19T01:21:44;9.23;;;5.85;;
53269;SDS011;39159;45.634;9.420;2023-11-19T01:24:09;8.38;;;6.22;;
53269;SDS011;39159;45.634;9.420;2023-11-19T01:26:37;9.13;;;5.85;;
53269;SDS011;39159;45.634;9.420;2023-11-19T01:29:02;10.05;;;5.80;;
53269;SDS011;39159;45.634;9.420;2023-11-19T01:31:29;8.20;;;5.50;;
53269;SDS011;39159;45.634;9.420;2023-11-19T01:33:56;8.57;;;5.57;;
53269;SDS011;39159;45.634;9.420;2023-11-19T01:36:22;8.52;;;5.22;;
53269;SDS011;39159;45.634;9.420;2023-11-19T01:38:48;9.05;;;5.43;;
53269;SDS011;39159;45.634;9.420;2023-11-19T01:41:13;9.02;;;6.50;;
53269;SDS011;39159;45.634;9.420;2023-11-19T01:43:39;11.18;;;6.00;;
53269;SDS011;39159;45.634;9.420;2023-11-19T01:46:08;10.82;;;5.90;;
53269;SDS011;39159;45.634;9.420;2023-11-19T01:48:37;9.93;;;6.32;;
53269;SDS011;39159;45.634;9.420;2023-11-19T01:51:06;9.07;;;6.10;;
53269;SDS011;39159;45.634;9.420;2023-11-19T01:53:32;10.02;;;5.90;;
53269;SDS011;39159;45.634;9.420;2023-11-19T01:55:59;10.90;;;5.85;;
53269;SDS011;39159;45.634;9.420;2023-11-19T01:58:25;9.80;;;6.00;;
53269;SDS011;39159;45.634;9.420;2023-11-19T02:00:51;10.73;;;5.97;;
53269;SDS011;39159;45.634;9.420;2023-11-19T02:03:17;8.52;;;5.78;;
53269;SDS011;39159;45.634;9.420;2023-11-19T02:05:43;8.00;;;5.50;;
53269;SDS011;39159;45.634;9.420;2023-11-19T02:08:09;9.18;;;6.28;;
53269;SDS011;39159;45.634;9.420;2023-11-19T02:10:34;9.27;;;5.93;;
53269;SDS011;39159;45.634;9.420;2023-11-19T02:13:01;10.68;;;5.60;;
53269;SDS011;39159;45.634;9.420;2023-11-19T02:15:27;9.65;;;6.10;;
53269;SDS011;39159;45.634;9.420;2023-11-19T02:17:53;8.15;;;5.80;;
53269;SDS011;39159;45.634;9.420;2023-11-19T02:20:18;8.82;;;5.65;;
53269;SDS011;39159;45.634;9.420;2023-11-19T02:22:48;7.47;;;5.57;;
53269;SDS011;39159;45.634;9.420;2023-11-19T02:25:30;8.48;;;5.80;;
53269;SDS011;39159;45.634;9.420;2023-11-19T02:28:00;9.90;;;5.57;;
53269;SDS011;39159;45.634;9.420;2023-11-19T02:30:27;8.38;;;5.20;;
53269;SDS011;39159;45.634;9.420;2023-11-19T02:32:57;9.82;;;5.68;;
53269;SDS011;39159;45.634;9.420;2023-11-19T02:35:24;10.07;;;5.50;;
53269;SDS011;39159;45.634;9.420;2023-11-19T02:37:51;8.30;;;5.15;;
53269;SDS011;39159;45.634;9.420;2023-11-19T02:40:16;9.18;;;5.68;;
53269;SDS011;39159;45.634;9.420;2023-11-19T02:42:42;8.10;;;5.28;;
53269;SDS011;39159;45.634;9.420;2023-11-19T02:45:08;8.23;;;5.65;;
53269;SDS011;39159;45.634;9.420;2023-11-19T02:47:39;10.15;;;5.90;;
53269;SDS011;39159;45.634;9.420;2023-11-19T02:50:05;8.85;;;5.65;;
53269;SDS011;39159;45.634;9.420;2023-11-19T02:52:38;8.35;;;5.45;;
53269;SDS011;39159;45.634;9.420;2023-11-19T02:55:04;10.73;;;5.72;;
53269;SDS011;39159;45.634;9.420;2023-11-19T02:57:34;9.98;;;5.28;;
53269;SDS011;39159;45.634;9.420;2023-11-19T03:00:00;7.78;;;5.63;;
53269;SDS011;39159;45.634;9.420;2023-11-19T03:02:25;8.50;;;5.47;;
53269;SDS011;39159;45.634;9.420;2023-11-19T03:04:58;9.55;;;5.50;;
53269;SDS011;39159;45.634;9.420;2023-11-19T03:07:25;7.45;;;5.07;;
53269;SDS011;39159;45.634;9.420;2023-11-19T03:09:50;8.32;;;4.82;;
53269;SDS011;39159;45.634;9.420;2023-11-19T03:12:15;9.00;;;4.80;;
53269;SDS011;39159;45.634;9.420;2023-11-19T03:14:41;8.57;;;5.50;;
53269;SDS011;39159;45.634;9.420;2023-11-19T03:17:07;7.45;;;4.68;;
53269;SDS011;39159;45.634;9.420;2023-11-19T03:19:34;9.18;;;5.00;;
53269;SDS011;39159;45.634;9.420;2023-11-19T03:22:01;7.90;;;4.78;;
53269;SDS011;39159;45.634;9.420;2023-11-19T03:24:26;7.43;;;4.85;;
53269;SDS011;39159;45.634;9.420;2023-11-19T03:26:52;6.88;;;5.10;;
53269;SDS011;39159;45.634;9.420;2023-11-19T03:29:17;8.00;;;4.78;;
53269;SDS011;39159;45.634;9.420;2023-11-19T03:31:43;8.20;;;4.70;;
53269;SDS011;39159;45.634;9.420;2023-11-19T03:34:09;7.22;;;4.68;;
53269;SDS011;39159;45.634;9.420;2023-11-19T03:36:35;9.02;;;4.55;;
53269;SDS011;39159;45.634;9.420;2023-11-19T03:39:00;9.35;;;5.20;;
53269;SDS011;39159;45.634;9.420;2023-11-19T03:41:26;6.68;;;4.70;;
53269;SDS011;39159;45.634;9.420;2023-11-19T03:43:52;6.60;;;4.47;;
53269;SDS011;39159;45.634;9.420;2023-11-19T03:46:18;10.60;;;5.60;;
53269;SDS011;39159;45.634;9.420;2023-11-19T03:48:44;8.88;;;5.38;;
53269;SDS011;39159;45.634;9.420;2023-11-19T03:51:12;7.80;;;5.03;;
53269;SDS011;39159;45.634;9.420;2023-11-19T03:53:40;8.32;;;4.97;;
53269;SDS011;39159;45.634;9.420;2023-11-19T03:56:07;7.25;;;4.72;;
53269;SDS011;39159;45.634;9.420;2023-11-19T03:58:34;6.45;;;4.60;;
53269;SDS011;39159;45.634;9.420;2023-11-19T04:01:00;6.28;;;4.38;;
53269;SDS011;39159;45.634;9.420;2023-11-19T04:03:26;6.47;;;4.47;;
53269;SDS011;39159;45.634;9.420;2023-11-19T04:05:51;7.78;;;4.65;;
53269;SDS011;39159;45.634;9.420;2023-11-19T04:08:17;6.40;;;4.60;;
53269;SDS011;39159;45.634;9.420;2023-11-19T04:10:42;7.68;;;5.13;;
53269;SDS011;39159;45.634;9.420;2023-11-19T04:13:08;6.53;;;4.07;;
53269;SDS011;39159;45.634;9.420;2023-11-19T04:15:33;8.18;;;4.80;;
53269;SDS011;39159;45.634;9.420;2023-11-19T04:17:58;6.57;;;4.57;;
53269;SDS011;39159;45.634;9.420;2023-11-19T04:20:24;7.18;;;4.55;;
53269;SDS011;39159;45.634;9.420;2023-11-19T04:22:50;6.45;;;4.10;;
53269;SDS011;39159;45.634;9.420;2023-11-19T04:25:16;8.90;;;4.53;;
53269;SDS011;39159;45.634;9.420;2023-11-19T04:27:44;6.95;;;4.13;;
53269;SDS011;39159;45.634;9.420;2023-11-19T04:30:09;8.05;;;5.00;;
53269;SDS011;39159;45.634;9.420;2023-11-19T04:32:36;6.97;;;4.20;;
53269;SDS011;39159;45.634;9.420;2023-11-19T04:35:01;6.38;;;4.45;;
53269;SDS011;39159;45.634;9.420;2023-11-19T04:37:27;7.57;;;4.30;;
53269;SDS011;39159;45.634;9.420;2023-11-19T04:39:52;6.18;;;3.95;;
53269;SDS011;39159;45.634;9.420;2023-11-19T04:42:17;7.78;;;4.72;;
53269;SDS011;39159;45.634;9.420;2023-11-19T04:44:43;5.60;;;3.83;;
53269;SDS011;39159;45.634;9.420;2023-11-19T04:47:09;5.72;;;4.30;;
53269;SDS011;39159;45.634;9.420;2023-11-19T04:49:39;6.10;;;3.83;;
53269;SDS011;39159;45.634;9.420;2023-11-19T04:52:05;6.00;;;4.10;;
53269;SDS011;39159;45.634;9.420;2023-11-19T04:54:30;8.95;;;4.18;;
53269;SDS011;39159;45.634;9.420;2023-11-19T04:56:56;5.78;;;3.97;;
53269;SDS011;39159;45.634;9.420;2023-11-19T04:59:21;5.85;;;4.30;;
53269;SDS011;39159;45.634;9.420;2023-11-19T05:01:47;7.78;;;3.92;;
53269;SDS011;39159;45.634;9.420;2023-11-19T05:04:13;5.63;;;3.83;;
53269;SDS011;39159;45.634;9.420;2023-11-19T05:06:38;6.95;;;4.03;;
53269;SDS011;39159;45.634;9.420;2023-11-19T05:09:03;5.45;;;3.88;;
53269;SDS011;39159;45.634;9.420;2023-11-19T05:11:37;9.30;;;4.07;;
53269;SDS011;39159;45.634;9.420;2023-11-19T05:14:04;8.43;;;3.90;;
53269;SDS011;39159;45.634;9.420;2023-11-19T05:16:30;7.40;;;3.78;;
53269;SDS011;39159;45.634;9.420;2023-11-19T05:18:56;7.18;;;4.22;;
53269;SDS011;39159;45.634;9.420;2023-11-19T05:21:21;6.70;;;3.60;;
53269;SDS011;39159;45.634;9.420;2023-11-19T05:23:46;6.40;;;3.97;;
53269;SDS011;39159;45.634;9.420;2023-11-19T05:26:19;6.30;;;3.72;;
53269;SDS011;39159;45.634;9.420;2023-11-19T05:28:45;6.18;;;4.25;;
53269;SDS011;39159;45.634;9.420;2023-11-19T05:31:10;6.65;;;3.97;;
53269;SDS011;39159;45.634;9.420;2023-11-19T05:33:36;8.93;;;3.90;;
53269;SDS011;39159;45.634;9.420;2023-11-19T05:36:01;5.68;;;3.83;;
53269;SDS011;39159;45.634;9.420;2023-11-19T05:38:28;6.35;;;4.03;;
53269;SDS011;39159;45.634;9.420;2023-11-19T05:40:54;6.72;;;4.00;;
53269;SDS011;39159;45.634;9.420;2023-11-19T05:43:20;5.43;;;3.60;;
53269;SDS011;39159;45.634;9.420;2023-11-19T05:45:46;7.25;;;3.97;;
53269;SDS011;39159;45.634;9.420;2023-11-19T05:48:12;8.20;;;4.00;;
53269;SDS011;39159;45.634;9.420;2023-11-19T05:50:37;5.68;;;3.83;;
53269;SDS011;39159;45.634;9.420;2023-11-19T05:53:03;5.82;;;3.63;;
53269;SDS011;39159;45.634;9.420;2023-11-19T05:55:33;5.68;;;3.60;;
53269;SDS011;39159;45.634;9.420;2023-11-19T05:57:59;7.50;;;4.50;;
53269;SDS011;39159;45.634;9.420;2023-11-19T06:00:25;9.13;;;6.43;;
53269;SDS011;39159;45.634;9.420;2023-11-19T06:02:51;19.42;;;11.23;;
53269;SDS011;39159;45.634;9.420;2023-11-19T06:05:17;13.38;;;8.85;;
53269;SDS011;39159;45.634;9.420;2023-11-19T06:07:42;10.93;;;6.35;;
53269;SDS011;39159;45.634;9.420;2023-11-19T06:10:07;6.55;;;4.53;;
53269;SDS011;39159;45.634;9.420;2023-11-19T06:12:34;6.07;;;3.90;;
53269;SDS011;39159;45.634;9.420;2023-11-19T06:15:03;6.20;;;4.00;;
53269;SDS011;39159;45.634;9.420;2023-11-19T06:17:30;6.93;;;3.70;;
53269;SDS011;39159;45.634;9.420;2023-11-19T06:19:55;4.97;;;3.50;;
53269;SDS011;39159;45.634;9.420;2023-11-19T06:22:20;6.97;;;3.83;;
53269;SDS011;39159;45.634;9.420;2023-11-19T06:24:46;5.47;;;3.60;;
53269;SDS011;39159;45.634;9.420;2023-11-19T06:27:11;4.72;;;3.60;;
53269;SDS011;39159;45.634;9.420;2023-11-19T06:29:38;4.75;;;3.47;;
53269;SDS011;39159;45.634;9.420;2023-11-19T06:32:05;4.82;;;3.50;;
53269;SDS011;39159;45.634;9.420;2023-11-19T06:34:31;6.72;;;3.53;;
53269;SDS011;39159;45.634;9.420;2023-11-19T06:36:58;5.35;;;3.67;;
53269;SDS011;39159;45.634;9.420;2023-11-19T06:39:23;5.50;;;3.50;;
53269;SDS011;39159;45.634;9.420;2023-11-19T06:41:48;5.70;;;3.88;;
53269;SDS011;39159;45.634;9.420;2023-11-19T06:44:14;9.35;;;3.78;;
53269;SDS011;39159;45.634;9.420;2023-11-19T06:46:39;5.93;;;4.25;;
53269;SDS011;39159;45.634;9.420;2023-11-19T06:49:05;5.22;;;3.85;;
53269;SDS011;39159;45.634;9.420;2023-11-19T06:51:32;6.13;;;3.72;;
53269;SDS011;39159;45.634;9.420;2023-11-19T06:53:58;5.70;;;3.85;;
53269;SDS011;39159;45.634;9.420;2023-11-19T06:56:24;4.60;;;3.08;;
53269;SDS011;39159;45.634;9.420;2023-11-19T06:58:50;6.28;;;3.42;;
53269;SDS011;39159;45.634;9.420;2023-11-19T07:01:16;6.50;;;3.92;;
53269;SDS011;39159;45.634;9.420;2023-11-19T07:03:43;6.22;;;3.90;;
53269;SDS011;39159;45.634;9.420;2023-11-19T07:06:11;6.65;;;3.72;;
53269;SDS011;39159;45.634;9.420;2023-11-19T07:08:38;4.70;;;3.40;;
53269;SDS011;39159;45.634;9.420;2023-11-19T07:11:04;6.53;;;3.55;;
53269;SDS011;39159;45.634;9.420;2023-11-19T07:13:29;5.15;;;3.67;;
53269;SDS011;39159;45.634;9.420;2023-11-19T07:15:57;6.10;;;3.67;;
53269;SDS011;39159;45.634;9.420;2023-11-19T07:18:23;12.88;;;4.15;;
53269;SDS011;39159;45.634;9.420;2023-11-19T07:20:49;4.00;;;3.20;;
53269;SDS011;39159;45.634;9.420;2023-11-19T07:23:14;6.85;;;3.63;;
53269;SDS011;39159;45.634;9.420;2023-11-19T07:25:43;5.28;;;3.35;;
53269;SDS011;39159;45.634;9.420;2023-11-19T07:28:11;4.35;;;3.30;;
53269;SDS011;39159;45.634;9.420;2023-11-19T07:30:37;4.35;;;3.25;;
53269;SDS011;39159;45.634;9.420;2023-11-19T07:33:03;4.60;;;2.97;;
53269;SDS011;39159;45.634;9.420;2023-11-19T07:35:29;5.45;;;3.22;;
53269;SDS011;39159;45.634;9.420;2023-11-19T07:37:55;5.25;;;3.42;;
53269;SDS011;39159;45.634;9.420;2023-11-19T07:40:21;5.75;;;3.25;;
53269;SDS011;39159;45.634;9.420;2023-11-19T07:42:46;4.82;;;3.22;;
53269;SDS011;39159;45.634;9.420;2023-11-19T07:45:12;5.25;;;3.10;;
53269;SDS011;39159;45.634;9.420;2023-11-19T07:47:38;4.40;;;3.00;;
53269;SDS011;39159;45.634;9.420;2023-11-19T07:50:03;3.78;;;2.78;;
53269;SDS011;39159;45.634;9.420;2023-11-19T07:52:29;5.25;;;3.08;;
53269;SDS011;39159;45.634;9.420;2023-11-19T07:54:54;3.33;;;2.90;;
53269;SDS011;39159;45.634;9.420;2023-11-19T07:57:20;6.13;;;3.38;;
53269;SDS011;39159;45.634;9.420;2023-11-19T07:59:46;4.55;;;3.50;;
53269;SDS011;39159;45.634;9.420;2023-11-19T08:02:12;5.70;;;3.03;;
53269;SDS011;39159;45.634;9.420;2023-11-19T08:04:37;5.43;;;3.25;;
53269;SDS011;39159;45.634;9.420;2023-11-19T08:07:04;4.47;;;3.05;;
53269;SDS011;39159;45.634;9.420;2023-11-19T08:09:30;7.35;;;2.88;;
53269;SDS011;39159;45.634;9.420;2023-11-19T08:11:55;4.63;;;3.05;;
53269;SDS011;39159;45.634;9.420;2023-11-19T08:14:21;6.43;;;3.03;;
53269;SDS011;39159;45.634;9.420;2023-11-19T08:16:46;3.72;;;2.90;;
53269;SDS011;39159;45.634;9.420;2023-11-19T08:19:12;4.18;;;3.03;;
53269;SDS011;39159;45.634;9.420;2023-11-19T08:21:37;5.13;;;3.35;;
53269;SDS011;39159;45.634;9.420;2023-11-19T08:24:03;4.45;;;3.25;;
53269;SDS011;39159;45.634;9.420;2023-11-19T08:26:28;4.65;;;3.13;;
53269;SDS011;39159;45.634;9.420;2023-11-19T08:28:54;5.90;;;3.10;;
53269;SDS011;39159;45.634;9.420;2023-11-19T08:31:19;4.30;;;2.90;;
53269;SDS011;39159;45.634;9.420;2023-11-19T08:33:45;8.10;;;2.90;;
53269;SDS011;39159;45.634;9.420;2023-11-19T08:36:16;4.57;;;2.90;;
53269;SDS011;39159;45.634;9.420;2023-11-19T08:38:42;3.65;;;2.63;;
53269;SDS011;39159;45.634;9.420;2023-11-19T08:41:07;4.35;;;2.70;;
53269;SDS011;39159;45.634;9.420;2023-11-19T08:43:33;5.63;;;3.17;;
53269;SDS011;39159;45.634;9.420;2023-11-19T08:45:58;6.70;;;3.55;;
53269;SDS011;39159;45.634;9.420;2023-11-19T08:48:23;4.32;;;2.92;;
53269;SDS011;39159;45.634;9.420;2023-11-19T08:50:49;3.47;;;2.65;;
53269;SDS011;39159;45.634;9.420;2023-11-19T08:53:15;3.58;;;2.80;;
53269;SDS011;39159;45.634;9.420;2023-11-19T08:55:40;3.33;;;2.65;;
53269;SDS011;39159;45.634;9.420;2023-11-19T08:58:05;4.57;;;2.83;;
53269;SDS011;39159;45.634;9.420;2023-11-19T09:00:31;3.58;;;3.15;;
53269;SDS011;39159;45.634;9.420;2023-11-19T09:02:57;3.75;;;2.90;;
53269;SDS011;39159;45.634;9.420;2023-11-19T09:05:23;5.10;;;3.40;;
53269;SDS011;39159;45.634;9.420;2023-11-19T09:07:48;4.72;;;3.20;;
53269;SDS011;39159;45.634;9.420;2023-11-19T09:10:14;4.65;;;3.42;;
53269;SDS011;39159;45.634;9.420;2023-11-19T09:12:40;3.60;;;2.95;;
53269;SDS011;39159;45.634;9.420;2023-11-19T09:15:06;5.63;;;3.30;;
53269;SDS011;39159;45.634;9.420;2023-11-19T09:17:32;7.65;;;3.22;;
53269;SDS011;39159;45.634;9.420;2023-11-19T09:19:57;4.28;;;3.13;;
53269;SDS011;39159;45.634;9.420;2023-11-19T09:22:23;4.18;;;2.80;;
53269;SDS011;39159;45.634;9.420;2023-11-19T09:24:48;6.05;;;3.63;;
53269;SDS011;39159;45.634;9.420;2023-11-19T09:27:14;4.45;;;3.30;;
53269;SDS011;39159;45.634;9.420;2023-11-19T09:29:39;4.85;;;3.25;;
53269;SDS011;39159;45.634;9.420;2023-11-19T09:32:04;5.75;;;3.47;;
53269;SDS011;39159;45.634;9.420;2023-11-19T09:34:31;4.07;;;3.13;;
53269;SDS011;39159;45.634;9.420;2023-11-19T09:36:56;4.07;;;3.67;;
53269;SDS011;39159;45.634;9.420;2023-11-19T09:39:22;5.03;;;3.38;;
53269;SDS011;39159;45.634;9.420;2023-11-19T09:41:47;4.53;;;3.40;;
53269;SDS011;39159;45.634;9.420;2023-11-19T09:44:13;5.05;;;3.28;;
53269;SDS011;39159;45.634;9.420;2023-11-19T09:46:40;3.47;;;3.10;;
53269;SDS011;39159;45.634;9.420;2023-11-19T09:49:06;5.15;;;3.53;;
53269;SDS011;39159;45.634;9.420;2023-11-19T09:51:34;10.98;;;3.72;;
53269;SDS011;39159;45.634;9.420;2023-11-19T09:54:00;6.93;;;4.03;;
53269;SDS011;39159;45.634;9.420;2023-11-19T09:56:26;5.32;;;4.18;;
53269;SDS011;39159;45.634;9.420;2023-11-19T09:58:54;6.47;;;4.25;;
53269;SDS011;39159;45.634;9.420;2023-11-19T10:01:20;7.78;;;5.03;;
53269;SDS011;39159;45.634;9.420;2023-11-19T10:03:46;7.28;;;5.10;;
53269;SDS011;39159;45.634;9.420;2023-11-19T10:06:12;6.63;;;4.80;;
53269;SDS011;39159;45.634;9.420;2023-11-19T10:08:40;7.85;;;5.07;;
53269;SDS011;39159;45.634;9.420;2023-11-19T10:11:08;10.45;;;5.57;;
53269;SDS011;39159;45.634;9.420;2023-11-19T10:13:35;7.65;;;5.00;;
53269;SDS011;39159;45.634;9.420;2023-11-19T10:16:04;6.95;;;4.40;;
53269;SDS011;39159;45.634;9.420;2023-11-19T10:18:32;7.40;;;4.03;;
53269;SDS011;39159;45.634;9.420;2023-11-19T10:21:02;5.68;;;3.92;;
53269;SDS011;39159;45.634;9.420;2023-11-19T10:23:28;7.45;;;4.28;;
53269;SDS011;39159;45.634;9.420;2023-11-19T10:25:54;6.00;;;4.50;;
53269;SDS011;39159;45.634;9.420;2023-11-19T10:28:36;4.55;;;3.90;;
53269;SDS011;39159;45.634;9.420;2023-11-19T10:31:04;8.05;;;4.35;;
53269;SDS011;39159;45.634;9.420;2023-11-19T10:33:30;9.27;;;5.70;;
53269;SDS011;39159;45.634;9.420;2023-11-19T10:35:56;13.00;;;9.95;;
53269;SDS011;39159;45.634;9.420;2023-11-19T10:38:22;12.18;;;6.53;;
53269;SDS011;39159;45.634;9.420;2023-11-19T10:40:49;8.98;;;6.22;;
53269;SDS011;39159;45.634;9.420;2023-11-19T10:43:16;11.68;;;6.45;;
53269;SDS011;39159;45.634;9.420;2023-11-19T10:45:44;7.90;;;5.57;;
53269;SDS011;39159;45.634;9.420;2023-11-19T10:48:10;15.27;;;6.72;;
53269;SDS011;39159;45.634;9.420;2023-11-19T10:50:38;10.52;;;6.78;;
53269;SDS011;39159;45.634;9.420;2023-11-19T10:53:05;11.82;;;7.05;;
53269;SDS011;39159;45.634;9.420;2023-11-19T10:55:34;9.77;;;6.72;;
53269;SDS011;39159;45.634;9.420;2023-11-19T10:58:06;9.23;;;6.45;;
53269;SDS011;39159;45.634;9.420;2023-11-19T11:03:09;12.40;;;6.80;;
53269;SDS011;39159;45.634;9.420;2023-11-19T11:05:56;7.65;;;6.18;;
53269;SDS011;39159;45.634;9.420;2023-11-19T11:08:23;9.63;;;6.22;;
53269;SDS011;39159;45.634;9.420;2023-11-19T11:10:55;10.73;;;6.93;;
53269;SDS011;39159;45.634;9.420;2023-11-19T11:13:22;8.50;;;6.40;;
53269;SDS011;39159;45.634;9.420;2023-11-19T11:15:49;9.75;;;7.13;;
53269;SDS011;39159;45.634;9.420;2023-11-19T11:18:15;11.80;;;6.88;;
53269;SDS011;39159;45.634;9.420;2023-11-19T11:20:42;8.60;;;6.53;;
53269;SDS011;39159;45.634;9.420;2023-11-19T11:25:58;9.60;;;7.15;;
53269;SDS011;39159;45.634;9.420;2023-11-19T11:28:56;11.57;;;6.68;;
53269;SDS011;39159;45.634;9.420;2023-11-19T11:36:47;8.93;;;6.70;;
53269;SDS011;39159;45.634;9.420;2023-11-19T11:39:22;9.90;;;6.53;;
53269;SDS011;39159;45.634;9.420;2023-11-19T11:42:19;7.63;;;5.50;;
53269;SDS011;39159;45.634;9.420;2023-11-19T11:45:00;11.07;;;6.60;;
53269;SDS011;39159;45.634;9.420;2023-11-19T11:55:26;8.20;;;6.53;;
53269;SDS011;39159;45.634;9.420;2023-11-19T11:57:57;9.30;;;6.82;;
53269;SDS011;39159;45.634;9.420;2023-11-19T12:03:00;10.35;;;6.32;;
53269;SDS011;39159;45.634;9.420;2023-11-19T12:05:26;9.23;;;6.63;;
53269;SDS011;39159;45.634;9.420;2023-11-19T12:08:02;11.90;;;8.88;;
53269;SDS011;39159;45.634;9.420;2023-11-19T12:10:31;9.23;;;7.30;;
53269;SDS011;39159;45.634;9.420;2023-11-19T12:13:00;10.32;;;7.28;;
53269;SDS011;39159;45.634;9.420;2023-11-19T12:15:27;7.95;;;6.20;;
53269;SDS011;39159;45.634;9.420;2023-11-19T12:17:53;8.18;;;6.07;;
53269;SDS011;39159;45.634;9.420;2023-11-19T12:20:21;6.18;;;4.97;;
53269;SDS011;39159;45.634;9.420;2023-11-19T12:22:48;9.77;;;5.63;;
53269;SDS011;39159;45.634;9.420;2023-11-19T12:25:14;6.93;;;4.85;;
53269;SDS011;39159;45.634;9.420;2023-11-19T12:27:46;7.75;;;5.60;;
53269;SDS011;39159;45.634;9.420;2023-11-19T12:30:12;6.20;;;4.80;;
53269;SDS011;39159;45.634;9.420;2023-11-19T12:32:43;7.80;;;5.15;;
53269;SDS011;39159;45.634;9.420;2023-11-19T12:35:10;7.15;;;5.25;;
53269;SDS011;39159;45.634;9.420;2023-11-19T12:37:42;8.00;;;5.50;;
53269;SDS011;39159;45.634;9.420;2023-11-19T12:42:47;7.70;;;5.03;;
53269;SDS011;39159;45.634;9.420;2023-11-19T12:45:14;8.98;;;5.95;;
53269;SDS011;39159;45.634;9.420;2023-11-19T12:47:41;8.65;;;5.57;;
53269;SDS011;39159;45.634;9.420;2023-11-19T12:50:07;11.45;;;6.28;;
53269;SDS011;39159;45.634;9.420;2023-11-19T12:52:34;7.07;;;5.47;;
53269;SDS011;39159;45.634;9.420;2023-11-19T12:55:00;8.35;;;5.15;;
53269;SDS011;39159;45.634;9.420;2023-11-19T13:00:03;10.07;;;5.60;;
53269;SDS011;39159;45.634;9.420;2023-11-19T13:02:47;8.07;;;5.85;;
53269;SDS011;39159;45.634;9.420;2023-11-19T13:07:58;11.57;;;7.43;;
53269;SDS011;39159;45.634;9.420;2023-11-19T13:10:24;10.70;;;6.47;;
53269;SDS011;39159;45.634;9.420;2023-11-19T13:13:02;8.48;;;6.47;;
53269;SDS011;39159;45.634;9.420;2023-11-19T13:15:32;9.50;;;6.32;;
53269;SDS011;39159;45.634;9.420;2023-11-19T13:17:58;11.45;;;7.07;;
53269;SDS011;39159;45.634;9.420;2023-11-19T13:20:23;9.55;;;6.53;;
53269;SDS011;39159;45.634;9.420;2023-11-19T13:22:59;6.43;;;4.65;;
53269;SDS011;39159;45.634;9.420;2023-11-19T13:25:28;7.15;;;4.10;;
53269;SDS011;39159;45.634;9.420;2023-11-19T13:27:54;6.45;;;3.80;;
53269;SDS011;39159;45.634;9.420;2023-11-19T13:30:20;6.32;;;4.20;;
53269;SDS011;39159;45.634;9.420;2023-11-19T13:32:47;8.40;;;4.38;;
53269;SDS011;39159;45.634;9.420;2023-11-19T13:35:13;5.40;;;3.95;;
53269;SDS011;39159;45.634;9.420;2023-11-19T13:37:39;5.18;;;3.85;;
53269;SDS011;39159;45.634;9.420;2023-11-19T13:40:06;6.40;;;4.10;;
53269;SDS011;39159;45.634;9.420;2023-11-19T13:42:32;7.88;;;4.47;;
53269;SDS011;39159;45.634;9.420;2023-11-19T13:44:58;6.35;;;4.38;;
53269;SDS011;39159;45.634;9.420;2023-11-19T13:47:23;5.50;;;3.70;;
53269;SDS011;39159;45.634;9.420;2023-11-19T13:49:49;5.65;;;3.83;;
53269;SDS011;39159;45.634;9.420;2023-11-19T13:52:14;7.18;;;4.03;;
53269;SDS011;39159;45.634;9.420;2023-11-19T13:54:40;7.18;;;4.32;;
53269;SDS011;39159;45.634;9.420;2023-11-19T13:57:06;6.22;;;3.83;;
53269;SDS011;39159;45.634;9.420;2023-11-19T13:59:31;6.13;;;3.63;;
53269;SDS011;39159;45.634;9.420;2023-11-19T14:01:59;5.65;;;4.07;;
53269;SDS011;39159;45.634;9.420;2023-11-19T14:04:24;5.15;;;4.20;;
53269;SDS011;39159;45.634;9.420;2023-11-19T14:06:50;6.78;;;4.45;;
53269;SDS011;39159;45.634;9.420;2023-11-19T14:09:16;8.73;;;4.90;;
53269;SDS011;39159;45.634;9.420;2023-11-19T14:11:42;7.53;;;4.53;;
53269;SDS011;39159;45.634;9.420;2023-11-19T14:14:07;7.30;;;4.43;;
53269;SDS011;39159;45.634;9.420;2023-11-19T14:16:33;6.43;;;3.72;;
53269;SDS011;39159;45.634;9.420;2023-11-19T14:18:59;5.55;;;3.95;;
53269;SDS011;39159;45.634;9.420;2023-11-19T14:21:24;8.02;;;4.22;;
53269;SDS011;39159;45.634;9.420;2023-11-19T14:23:51;7.75;;;3.83;;
53269;SDS011;39159;45.634;9.420;2023-11-19T14:26:17;5.97;;;4.05;;
53269;SDS011;39159;45.634;9.420;2023-11-19T14:28:43;5.90;;;3.92;;
53269;SDS011;39159;45.634;9.420;2023-11-19T14:31:09;13.60;;;9.38;;
53269;SDS011;39159;45.634;9.420;2023-11-19T14:33:34;21.73;;;15.63;;
53269;SDS011;39159;45.634;9.420;2023-11-19T14:36:01;22.60;;;17.40;;
53269;SDS011;39159;45.634;9.420;2023-11-19T14:38:26;22.65;;;16.05;;
53269;SDS011;39159;45.634;9.420;2023-11-19T14:40:52;23.38;;;15.52;;
53269;SDS011;39159;45.634;9.420;2023-11-19T14:43:17;26.73;;;16.92;;
53269;SDS011;39159;45.634;9.420;2023-11-19T14:45:43;22.77;;;16.90;;
53269;SDS011;39159;45.634;9.420;2023-11-19T14:48:08;32.22;;;18.60;;
53269;SDS011;39159;45.634;9.420;2023-11-19T14:50:35;25.25;;;18.48;;
53269;SDS011;39159;45.634;9.420;2023-11-19T14:53:00;24.77;;;18.65;;
53269;SDS011;39159;45.634;9.420;2023-11-19T14:55:26;23.67;;;17.70;;
53269;SDS011;39159;45.634;9.420;2023-11-19T14:57:51;24.73;;;17.40;;
53269;SDS011;39159;45.634;9.420;2023-11-19T15:00:17;22.85;;;17.35;;
53269;SDS011;39159;45.634;9.420;2023-11-19T15:02:42;23.92;;;16.55;;
53269;SDS011;39159;45.634;9.420;2023-11-19T15:05:08;24.35;;;17.05;;
53269;SDS011;39159;45.634;9.420;2023-11-19T15:07:37;25.58;;;17.65;;
53269;SDS011;39159;45.634;9.420;2023-11-19T15:10:03;27.70;;;18.58;;
53269;SDS011;39159;45.634;9.420;2023-11-19T15:12:34;25.77;;;18.40;;